Time;durP1;ratioP1;P1;durP2;ratioP2;P2;SDS_P1;SDS_P2;PMS_P1;PMS_P2;Temp;Humidity;BMP_temperature;BMP_pressure;BME280_temperature;BME280_humidity;BME280_pressure;Samples;Min_cycle;Max_cycle;Signal;HPM_P1;HPM_P2
2022/01/09 00:02:10;;;;;;;5.70;5.10;;;;;;;4.94;68.35;98899.25;5061464;28;20420;-69
2022/01/09 00:04:36;;;;;;;5.37;4.87;;;;;;;4.53;69.23;98897.38;5064625;28;20168;-68
2022/01/09 00:07:01;;;;;;;6.50;5.10;;;;;;;4.55;70.93;98877.63;5065800;28;20390;-69
2022/01/09 00:09:28;;;;;;;7.33;5.67;;;;;;;4.29;70.48;98890.38;5065387;28;20255;-70
2022/01/09 00:11:53;;;;;;;5.90;4.70;;;;;;;4.63;70.11;98878.50;5063352;28;20169;-69
2022/01/09 00:14:19;;;;;;;5.00;4.50;;;;;;;4.29;70.27;98882.66;5060891;28;20467;-68
2022/01/09 00:16:44;;;;;;;5.43;4.70;;;;;;;4.64;69.93;98866.44;5061146;28;20445;-69
2022/01/09 00:19:09;;;;;;;5.23;4.50;;;;;;;4.87;69.87;98869.97;5061462;28;20174;-73
2022/01/09 00:21:35;;;;;;;8.33;5.07;;;;;;;4.57;69.46;98854.41;5059926;28;20197;-72
2022/01/09 00:24:01;;;;;;;7.93;5.20;;;;;;;4.55;70.13;98850.09;5060894;28;20169;-73
2022/01/09 00:26:26;;;;;;;5.33;4.43;;;;;;;4.52;69.93;98844.06;5060779;28;20454;-71
2022/01/09 00:28:52;;;;;;;5.00;4.60;;;;;;;5.00;68.74;98844.19;5060832;28;20166;-73
2022/01/09 00:31:17;;;;;;;5.37;4.90;;;;;;;4.71;70.27;98838.09;5060788;28;20188;-71
2022/01/09 00:33:42;;;;;;;6.30;5.00;;;;;;;4.84;69.61;98835.53;5061057;28;20528;-72
2022/01/09 00:36:07;;;;;;;5.63;5.13;;;;;;;4.65;69.52;98825.16;5060682;28;20177;-72
2022/01/09 00:38:33;;;;;;;5.60;5.10;;;;;;;4.72;70.39;98839.81;5059818;28;20209;-71
2022/01/09 00:40:58;;;;;;;5.40;4.90;;;;;;;4.52;69.98;98826.84;5061252;28;20197;-71
2022/01/09 00:43:24;;;;;;;6.33;5.03;;;;;;;4.71;71.11;98814.88;5060521;28;20162;-71
2022/01/09 00:45:49;;;;;;;5.30;4.80;;;;;;;4.22;70.67;98815.56;5060478;28;20176;-71
2022/01/09 00:48:15;;;;;;;6.87;4.87;;;;;;;4.36;70.59;98805.31;5060722;28;20170;-71
2022/01/09 00:50:41;;;;;;;4.80;4.40;;;;;;;4.89;69.17;98805.44;5060485;28;20201;-71
2022/01/09 00:53:06;;;;;;;5.30;4.50;;;;;;;4.58;70.96;98805.38;5060054;28;20193;-71
2022/01/09 00:55:32;;;;;;;6.20;4.90;;;;;;;4.97;70.61;98808.88;5060775;28;20723;-71
2022/01/09 00:57:57;;;;;;;5.67;4.90;;;;;;;4.64;70.21;98805.38;5060172;28;20173;-70
2022/01/09 01:00:23;;;;;;;5.50;5.00;;;;;;;4.83;69.04;98815.72;5060124;28;20312;-72
2022/01/09 01:02:48;;;;;;;8.03;5.27;;;;;;;4.69;69.12;98797.66;5060534;28;21033;-71
2022/01/09 01:05:14;;;;;;;6.60;5.07;;;;;;;5.19;69.51;98801.16;5060190;28;20169;-71
2022/01/09 01:07:39;;;;;;;6.03;5.10;;;;;;;4.46;70.13;98800.16;5060207;28;20174;-71
2022/01/09 01:10:05;;;;;;;4.70;4.30;;;;;;;4.31;71.15;98795.81;5060174;28;20192;-71
2022/01/09 01:12:31;;;;;;;4.70;4.30;;;;;;;4.69;70.38;98793.34;5059782;28;20197;-71
2022/01/09 01:14:56;;;;;;;6.03;4.40;;;;;;;4.85;70.36;98799.38;5059104;28;20184;-70
2022/01/09 01:17:23;;;;;;;5.10;4.53;;;;;;;4.45;72.05;98790.69;5059824;28;20420;-71
2022/01/09 01:19:48;;;;;;;5.40;4.30;;;;;;;4.92;69.88;98789.94;5059870;28;20439;-70
2022/01/09 01:22:14;;;;;;;5.00;4.50;;;;;;;4.54;71.09;98793.31;5059655;28;20427;-71
2022/01/09 01:24:41;;;;;;;4.63;4.23;;;;;;;4.87;69.70;98791.63;5060306;28;20162;-70
2022/01/09 01:27:06;;;;;;;4.67;4.27;;;;;;;4.88;71.34;98783.03;5059788;28;20391;-71
2022/01/09 01:29:32;;;;;;;5.50;4.43;;;;;;;4.44;70.69;98781.22;5059654;28;20449;-70
2022/01/09 01:31:57;;;;;;;5.60;4.63;;;;;;;4.52;71.23;98782.13;5059914;28;20190;-71
2022/01/09 01:34:23;;;;;;;4.90;4.40;;;;;;;4.48;71.47;98777.81;5059739;28;20606;-71
2022/01/09 01:36:49;;;;;;;5.17;4.70;;;;;;;4.54;71.88;98772.66;5061079;28;20197;-70
2022/01/09 01:39:17;;;;;;;5.13;4.63;;;;;;;4.81;71.29;98776.16;5060362;28;20405;-72
2022/01/09 01:41:42;;;;;;;5.13;4.63;;;;;;;4.22;71.74;98781.16;5059656;28;20177;-70
2022/01/09 01:44:09;;;;;;;4.60;4.20;;;;;;;4.32;73.25;98770.03;5059800;28;20694;-72
2022/01/09 01:46:35;;;;;;;5.83;5.13;;;;;;;4.17;73.33;98773.41;5060123;28;20157;-71
2022/01/09 01:49:00;;;;;;;5.17;4.67;;;;;;;4.20;73.29;98773.44;5058674;28;20418;-71
2022/01/09 01:51:26;;;;;;;5.23;4.80;;;;;;;4.11;72.50;98768.22;5058708;28;20170;-71
2022/01/09 01:53:54;;;;;;;6.57;5.30;;;;;;;4.15;72.49;98761.38;5058189;28;20225;-71
2022/01/09 01:56:20;;;;;;;5.73;4.93;;;;;;;3.94;72.93;98777.59;5075102;28;20170;-71
2022/01/09 01:58:47;;;;;;;6.83;5.20;;;;;;;3.82;73.23;98778.44;5059173;28;20416;-71
2022/01/09 02:01:12;;;;;;;4.97;4.47;;;;;;;4.01;72.30;98762.19;5059018;28;20419;-71
2022/01/09 02:03:38;;;;;;;11.03;5.33;;;;;;;3.53;73.67;98769.69;5058958;28;20416;-71
2022/01/09 02:06:04;;;;;;;5.87;4.70;;;;;;;4.13;72.62;98779.44;5059788;28;20248;-71
2022/01/09 02:08:31;;;;;;;5.60;5.10;;;;;;;3.98;73.81;98762.19;5058578;28;20712;-71
2022/01/09 02:10:56;;;;;;;5.50;4.60;;;;;;;4.44;73.39;98765.75;5064278;28;20563;-71
2022/01/09 02:13:22;;;;;;;5.53;4.87;;;;;;;4.52;72.19;98759.75;5065285;28;20528;-70
2022/01/09 02:15:48;;;;;;;5.53;5.00;;;;;;;4.10;73.51;98756.22;5060938;28;20178;-72
2022/01/09 02:18:20;;;;;;;7.53;5.10;;;;;;;4.46;72.74;98753.72;5059055;28;20527;-70
2022/01/09 02:20:46;;;;;;;5.53;4.90;;;;;;;4.14;74.23;98757.06;5059439;28;20244;-69
2022/01/09 02:23:14;;;;;;;8.67;5.80;;;;;;;4.29;75.18;98756.25;5058697;28;20761;-70
2022/01/09 02:25:39;;;;;;;5.97;5.37;;;;;;;4.02;74.76;98753.59;5074834;28;20817;-71
2022/01/09 02:28:06;;;;;;;5.40;4.87;;;;;;;4.29;74.21;98751.09;5058179;28;20431;-70
2022/01/09 02:30:32;;;;;;;7.67;5.37;;;;;;;3.71;76.28;98758.59;5057712;28;20485;-70
2022/01/09 02:32:59;;;;;;;5.67;5.17;;;;;;;4.51;74.82;98752.03;5058409;28;20550;-70
2022/01/09 02:35:26;;;;;;;5.73;5.23;;;;;;;3.91;74.25;98757.84;5058974;28;20416;-70
2022/01/09 02:37:51;;;;;;;5.53;5.03;;;;;;;4.17;75.39;98751.94;5058427;28;20466;-70
2022/01/09 02:40:16;;;;;;;6.20;5.63;;;;;;;4.33;74.71;98751.13;5058424;28;20416;-71
2022/01/09 02:42:42;;;;;;;6.17;5.57;;;;;;;3.76;76.05;98748.34;5058822;28;20452;-71
2022/01/09 02:45:07;;;;;;;5.13;4.57;;;;;;;3.73;77.00;98743.16;5057737;28;20173;-71
2022/01/09 02:47:34;;;;;;;6.37;5.60;;;;;;;3.84;76.25;98746.66;5058220;28;20398;-70
2022/01/09 02:50:18;;;;;;;6.50;5.63;;;;;;;3.95;76.81;98744.13;5058882;28;20201;-70
2022/01/09 02:52:52;;;;;;;6.17;5.57;;;;;;;3.63;76.97;98739.66;5058011;28;20928;-70
2022/01/09 02:55:19;;;;;;;6.23;5.63;;;;;;;3.67;78.01;98737.97;5057308;28;20459;-70
2022/01/09 02:57:50;;;;;;;6.37;5.87;;;;;;;3.84;77.98;98735.47;5074056;28;20383;-71
2022/01/09 03:00:26;;;;;;;8.53;6.53;;;;;;;3.75;78.82;98733.72;5057865;28;20797;-71
2022/01/09 03:02:51;;;;;;;7.73;5.40;;;;;;;3.61;79.18;98737.94;5058174;28;20411;-71
2022/01/09 03:05:17;;;;;;;9.97;6.10;;;;;;;3.44;79.36;98743.00;5058044;28;20441;-71
2022/01/09 03:07:44;;;;;;;6.43;5.83;;;;;;;3.29;78.97;98728.28;5057968;28;20175;-72
2022/01/09 03:10:11;;;;;;;6.87;5.63;;;;;;;3.34;80.50;98724.91;5058057;28;20220;-71
2022/01/09 03:12:37;;;;;;;5.77;5.17;;;;;;;3.40;79.92;98741.25;5057947;28;20447;-71
2022/01/09 03:15:03;;;;;;;7.50;6.60;;;;;;;3.88;79.08;98724.31;5062317;28;20412;-71
2022/01/09 03:17:29;;;;;;;7.60;5.60;;;;;;;3.27;79.02;98725.72;5062213;28;20170;-71
2022/01/09 03:19:54;;;;;;;7.60;5.90;;;;;;;3.29;79.73;98723.13;5064732;28;20468;-69
2022/01/09 03:22:19;;;;;;;8.10;6.10;;;;;;;3.37;79.87;98722.34;5061414;28;20176;-70
2022/01/09 03:24:45;;;;;;;6.20;5.60;;;;;;;3.69;78.56;98719.09;5058209;28;20531;-71
2022/01/09 03:27:11;;;;;;;6.83;5.70;;;;;;;3.72;78.81;98715.66;5058185;28;20185;-71
2022/01/09 03:29:37;;;;;;;7.13;6.43;;;;;;;3.64;78.90;98722.47;5057550;28;20169;-71
2022/01/09 03:32:02;;;;;;;6.87;6.20;;;;;;;3.97;77.98;98718.34;5058000;28;20412;-71
2022/01/09 03:34:27;;;;;;;6.73;6.10;;;;;;;3.32;77.34;98716.31;5057689;28;20570;-72
2022/01/09 03:36:53;;;;;;;7.03;6.43;;;;;;;3.79;77.35;98713.97;5058345;28;20182;-72
2022/01/09 03:39:18;;;;;;;6.50;5.90;;;;;;;3.48;77.36;98713.84;5057909;28;20165;-72
2022/01/09 03:41:43;;;;;;;7.00;6.10;;;;;;;3.22;79.42;98716.25;5057834;28;20208;-72
2022/01/09 03:44:09;;;;;;;6.30;5.70;;;;;;;3.77;77.89;98701.06;5058083;28;20177;-70
2022/01/09 03:46:34;;;;;;;7.83;6.07;;;;;;;4.00;77.22;98708.03;5057916;28;20446;-70
2022/01/09 03:49:02;;;;;;;6.60;5.97;;;;;;;4.00;76.71;98698.56;5057638;28;20189;-71
2022/01/09 03:51:32;;;;;;;6.50;5.90;;;;;;;3.94;76.56;98713.16;5058209;28;20220;-72
2022/01/09 03:53:58;;;;;;;6.93;6.27;;;;;;;3.88;75.41;98711.44;5040794;28;20924;-70
2022/01/09 03:56:23;;;;;;;6.33;5.73;;;;;;;3.95;76.28;98705.47;5059954;28;20416;-71
2022/01/09 03:58:49;;;;;;;7.70;6.10;;;;;;;3.82;76.16;98701.09;5061862;28;20185;-71
2022/01/09 04:01:14;;;;;;;7.10;6.37;;;;;;;3.82;76.11;98706.25;5061350;28;20170;-71
2022/01/09 04:03:39;;;;;;;7.97;6.70;;;;;;;3.88;75.67;98706.25;5061110;28;20477;-71
2022/01/09 04:06:05;;;;;;;7.00;6.00;;;;;;;3.45;76.67;98711.22;5061848;28;20184;-71
2022/01/09 04:08:31;;;;;;;8.20;5.93;;;;;;;4.21;75.13;98705.53;5061291;28;20270;-70
2022/01/09 04:10:57;;;;;;;7.00;6.30;;;;;;;3.91;74.80;98708.88;5061067;28;20273;-71
2022/01/09 04:13:22;;;;;;;6.87;6.27;;;;;;;3.80;74.67;98705.38;5060819;28;20439;-71
2022/01/09 04:15:49;;;;;;;8.27;5.90;;;;;;;4.20;74.90;98705.53;5061266;28;20170;-71
2022/01/09 04:18:21;;;;;;;7.63;6.00;;;;;;;4.31;75.06;98708.97;5060968;28;20166;-70
2022/01/09 04:20:47;;;;;;;6.63;5.90;;;;;;;3.96;74.88;98714.03;5061861;28;20658;-70
2022/01/09 04:23:13;;;;;;;6.53;5.87;;;;;;;3.28;76.36;98722.28;5060941;28;20423;-70
2022/01/09 04:25:39;;;;;;;6.23;5.63;;;;;;;4.07;74.65;98707.19;5061207;28;20438;-70
2022/01/09 04:28:04;;;;;;;7.40;6.27;;;;;;;3.83;74.65;98710.53;5060595;28;20166;-71
2022/01/09 04:30:30;;;;;;;6.47;5.87;;;;;;;3.69;75.00;98702.75;5060812;28;20430;-70
2022/01/09 04:32:55;;;;;;;7.20;6.43;;;;;;;3.97;74.55;98714.03;5060598;28;20677;-71
2022/01/09 04:35:20;;;;;;;7.00;6.30;;;;;;;3.64;76.65;98712.19;5061462;28;20199;-70
2022/01/09 04:37:47;;;;;;;6.83;6.13;;;;;;;4.11;73.51;98714.06;5060783;28;20161;-71
2022/01/09 04:40:15;;;;;;;7.20;6.50;;;;;;;4.15;73.56;98712.38;5060518;28;20184;-70
2022/01/09 04:42:52;;;;;;;6.73;6.03;;;;;;;4.57;73.63;98710.72;5061071;28;20432;-71
2022/01/09 04:45:19;;;;;;;7.63;6.77;;;;;;;4.18;73.72;98709.81;5059977;28;20817;-71
2022/01/09 04:47:47;;;;;;;6.80;6.00;;;;;;;4.11;73.88;98713.22;5060605;28;20411;-70
2022/01/09 04:50:18;;;;;;;6.80;6.03;;;;;;;4.11;73.46;98702.91;5060749;28;20396;-71
2022/01/09 04:52:44;;;;;;;6.77;5.53;;;;;;;4.07;74.26;98707.19;5062146;28;20480;-71
2022/01/09 04:55:09;;;;;;;8.03;6.23;;;;;;;3.69;75.48;98708.78;5061658;28;20464;-71
2022/01/09 04:57:35;;;;;;;7.47;6.67;;;;;;;4.06;75.50;98710.66;5061760;28;20391;-72
2022/01/09 05:00:00;;;;;;;7.27;6.33;;;;;;;4.11;75.28;98713.22;5061449;28;20264;-71
2022/01/09 05:02:25;;;;;;;6.20;5.60;;;;;;;3.78;76.04;98714.84;5060494;28;20173;-71
2022/01/09 05:04:51;;;;;;;10.43;5.90;;;;;;;3.52;77.96;98718.16;5060351;28;20174;-71
2022/01/09 05:07:16;;;;;;;6.97;6.27;;;;;;;3.86;76.03;98710.56;5060126;28;20252;-70
2022/01/09 05:09:41;;;;;;;6.00;5.50;;;;;;;3.69;76.80;98710.50;5060177;28;20234;-71
2022/01/09 05:12:07;;;;;;;6.60;6.00;;;;;;;3.53;78.06;98725.00;5060128;28;20185;-71
2022/01/09 05:14:32;;;;;;;6.83;6.20;;;;;;;4.03;76.78;98726.09;5060106;28;20466;-73
2022/01/09 05:16:58;;;;;;;9.13;5.93;;;;;;;3.90;75.47;98732.94;5059942;28;20449;-72
2022/01/09 05:19:28;;;;;;;8.23;5.40;;;;;;;3.79;77.45;98730.31;5060031;28;20174;-72
2022/01/09 05:21:54;;;;;;;6.80;6.20;;;;;;;3.70;78.29;98718.22;5060515;28;20467;-71
2022/01/09 05:24:20;;;;;;;6.70;6.10;;;;;;;3.86;77.41;98721.72;5059719;28;20412;-70
2022/01/09 05:26:45;;;;;;;6.90;6.30;;;;;;;3.56;79.32;98727.63;5059588;28;20423;-71
2022/01/09 05:29:10;;;;;;;6.70;5.90;;;;;;;3.45;78.66;98742.13;5060265;28;20169;-71
2022/01/09 05:31:36;;;;;;;7.40;6.70;;;;;;;3.25;80.64;98740.31;5059706;28;20166;-71
2022/01/09 05:34:01;;;;;;;6.80;5.90;;;;;;;3.65;79.37;98737.97;5059322;28;20209;-70
2022/01/09 05:36:26;;;;;;;6.90;6.20;;;;;;;2.38;82.00;98738.69;5059377;28;20219;-70
2022/01/09 05:38:52;;;;;;;7.87;6.60;;;;;;;2.93;80.29;98745.22;5059061;28;20277;-71
2022/01/09 05:41:17;;;;;;;7.03;6.03;;;;;;;3.36;79.38;98746.38;5059661;28;20496;-71
2022/01/09 05:43:42;;;;;;;8.90;6.93;;;;;;;2.86;81.06;98740.00;5059713;28;20244;-70
2022/01/09 05:46:08;;;;;;;9.67;7.20;;;;;;;3.03;80.90;98747.00;5059294;28;20176;-70
2022/01/09 05:48:33;;;;;;;7.20;6.50;;;;;;;3.11;80.68;98749.63;5059297;28;20166;-70
2022/01/09 05:50:58;;;;;;;7.90;6.77;;;;;;;3.33;80.06;98751.53;5059778;28;20170;-71
2022/01/09 05:53:24;;;;;;;7.83;7.03;;;;;;;3.32;79.94;98748.94;5058863;28;20225;-72
2022/01/09 05:55:49;;;;;;;7.90;7.10;;;;;;;3.10;80.28;98763.34;5060118;28;20188;-71
2022/01/09 05:58:14;;;;;;;9.47;7.50;;;;;;;3.31;80.03;98760.09;5061624;28;20208;-70
2022/01/09 06:00:40;;;;;;;7.83;7.13;;;;;;;3.44;79.66;98763.63;5061501;28;20161;-71
2022/01/09 06:03:05;;;;;;;7.53;6.73;;;;;;;2.88;82.91;98752.88;5059372;28;20252;-70
2022/01/09 06:05:30;;;;;;;7.93;7.13;;;;;;;2.52;81.80;98764.56;5059789;28;20550;-70
2022/01/09 06:07:56;;;;;;;8.77;7.87;;;;;;;3.29;81.51;98759.19;5058349;28;20170;-72
2022/01/09 06:10:21;;;;;;;9.13;8.20;;;;;;;2.96;81.07;98758.94;5058920;28;20193;-71
2022/01/09 06:12:46;;;;;;;8.97;8.07;;;;;;;2.56;82.20;98771.47;5059342;28;20239;-72
2022/01/09 06:15:12;;;;;;;12.90;8.50;;;;;;;2.98;81.28;98764.13;5058734;28;20224;-70
2022/01/09 06:17:38;;;;;;;8.83;7.53;;;;;;;3.09;79.79;98770.22;5058815;28;20585;-71
2022/01/09 06:20:05;;;;;;;8.17;7.37;;;;;;;2.32;81.89;98784.94;5058355;28;20196;-71
2022/01/09 06:22:30;;;;;;;8.90;7.90;;;;;;;3.18;81.57;98780.59;5058735;28;20491;-71
2022/01/09 06:24:55;;;;;;;8.80;7.90;;;;;;;3.41;80.63;98779.91;5059689;28;20458;-73
2022/01/09 06:27:21;;;;;;;9.70;8.70;;;;;;;3.44;81.18;98776.50;5066984;28;20173;-71
2022/01/09 06:29:46;;;;;;;9.53;8.60;;;;;;;3.73;79.58;98786.97;5068651;28;20176;-71
2022/01/09 06:32:12;;;;;;;9.47;8.27;;;;;;;3.33;80.18;98785.00;5069050;28;20170;-71
2022/01/09 06:34:37;;;;;;;9.80;8.37;;;;;;;2.90;81.69;98786.38;5061109;28;20197;-70
2022/01/09 06:37:03;;;;;;;9.33;8.30;;;;;;;3.43;80.93;98792.78;5059091;28;20173;-70
2022/01/09 06:39:28;;;;;;;9.80;8.80;;;;;;;3.47;79.78;98790.25;5058565;28;20525;-71
2022/01/09 06:41:55;;;;;;;9.40;8.50;;;;;;;3.52;79.85;98792.88;5058257;28;20256;-71
2022/01/09 06:44:21;;;;;;;12.03;9.40;;;;;;;2.99;80.76;98797.59;5058377;28;20196;-71
2022/01/09 06:46:46;;;;;;;9.80;8.37;;;;;;;3.19;81.45;98799.47;5058684;28;20448;-71
2022/01/09 06:49:11;;;;;;;10.13;9.13;;;;;;;3.29;80.78;98803.84;5058931;28;20180;-70
2022/01/09 06:51:36;;;;;;;9.43;8.43;;;;;;;3.18;80.52;98810.63;5058409;28;20165;-71
2022/01/09 06:54:02;;;;;;;9.97;8.97;;;;;;;3.25;80.87;98804.69;5058012;28;20228;-71
2022/01/09 06:56:27;;;;;;;10.00;9.03;;;;;;;3.46;80.60;98813.41;5058573;28;20216;-70
2022/01/09 06:58:53;;;;;;;11.10;9.23;;;;;;;3.39;79.72;98820.22;5058215;28;20248;-71
2022/01/09 07:01:18;;;;;;;10.30;8.43;;;;;;;3.50;80.74;98816.00;5058475;28;20245;-72
2022/01/09 07:03:43;;;;;;;10.67;9.63;;;;;;;3.84;78.60;98820.53;5058404;28;20399;-72
2022/01/09 07:06:09;;;;;;;10.03;9.13;;;;;;;3.63;79.72;98827.28;5058320;28;20174;-71
2022/01/09 07:08:34;;;;;;;10.73;9.63;;;;;;;3.60;78.95;98821.22;5058162;28;20581;-72
2022/01/09 07:11:01;;;;;;;11.33;10.10;;;;;;;3.24;79.08;98828.69;5058665;28;20177;-71
2022/01/09 07:13:26;;;;;;;13.77;9.37;;;;;;;3.41;79.40;98825.41;5057888;28;20217;-72
2022/01/09 07:15:51;;;;;;;10.33;9.33;;;;;;;3.34;80.84;98822.78;5057952;28;20415;-71
2022/01/09 07:18:17;;;;;;;10.57;9.47;;;;;;;2.93;79.95;98835.28;5058505;28;20162;-71
2022/01/09 07:20:42;;;;;;;11.03;9.33;;;;;;;3.52;80.50;98834.09;5058036;28;20189;-71
2022/01/09 07:23:07;;;;;;;10.40;9.43;;;;;;;3.50;81.36;98846.06;5057332;28;20178;-70
2022/01/09 07:25:33;;;;;;;10.63;9.53;;;;;;;3.36;80.91;98844.25;5058690;28;20162;-71
2022/01/09 07:27:59;;;;;;;10.93;9.70;;;;;;;3.34;80.75;98842.50;5058247;28;20558;-70
2022/01/09 07:30:26;;;;;;;11.77;9.53;;;;;;;3.88;79.10;98843.78;5059948;28;20169;-71
2022/01/09 07:32:51;;;;;;;10.67;9.63;;;;;;;3.35;79.66;98842.53;5062479;28;20473;-71
2022/01/09 07:35:17;;;;;;;11.03;9.93;;;;;;;3.50;80.00;98843.50;5062100;28;20423;-70
2022/01/09 07:37:42;;;;;;;11.60;10.17;;;;;;;3.53;79.96;98840.94;5061319;28;20169;-70
2022/01/09 07:40:08;;;;;;;12.03;10.53;;;;;;;3.75;79.46;98844.53;5062393;28;20470;-70
2022/01/09 07:42:33;;;;;;;10.50;9.40;;;;;;;3.19;82.27;98850.97;5061696;28;20414;-71
2022/01/09 07:44:59;;;;;;;10.63;9.63;;;;;;;3.09;80.91;98856.91;5061698;28;20173;-71
2022/01/09 07:47:24;;;;;;;11.00;9.53;;;;;;;3.53;80.44;98858.97;5062244;28;20196;-70
2022/01/09 07:49:50;;;;;;;11.57;9.97;;;;;;;3.20;81.00;98868.16;5061722;28;20824;-71
2022/01/09 07:52:15;;;;;;;10.40;9.40;;;;;;;3.50;79.91;98871.84;5061809;28;20169;-71
2022/01/09 07:54:40;;;;;;;10.10;9.10;;;;;;;3.46;79.56;98872.66;5061195;28;20221;-71
2022/01/09 07:57:06;;;;;;;10.30;8.60;;;;;;;3.54;80.22;98876.16;5061637;28;20500;-70
2022/01/09 07:59:31;;;;;;;10.67;9.57;;;;;;;3.48;80.93;98878.72;5061886;28;20181;-71
2022/01/09 08:01:56;;;;;;;11.10;9.80;;;;;;;3.80;79.66;98875.50;5061443;28;20197;-71
2022/01/09 08:04:22;;;;;;;11.50;10.23;;;;;;;3.52;79.35;98881.31;5061187;28;20256;-70
2022/01/09 08:06:47;;;;;;;9.63;8.80;;;;;;;3.54;79.38;98873.59;5062098;28;20165;-72
2022/01/09 08:09:12;;;;;;;12.07;9.93;;;;;;;2.90;81.06;98885.03;5061579;28;20178;-71
2022/01/09 08:11:38;;;;;;;11.33;10.07;;;;;;;3.43;79.93;98882.94;5061619;28;20172;-71
2022/01/09 08:14:03;;;;;;;11.20;10.10;;;;;;;3.43;80.69;98896.69;5061547;28;20239;-71
2022/01/09 08:16:29;;;;;;;11.60;9.93;;;;;;;3.39;81.03;98889.78;5062548;28;20260;-71
2022/01/09 08:18:54;;;;;;;11.90;10.40;;;;;;;3.66;80.22;98883.97;5061569;28;20253;-71
2022/01/09 08:21:20;;;;;;;11.77;10.67;;;;;;;3.22;80.63;98892.22;5060935;28;20429;-70
2022/01/09 08:23:50;;;;;;;11.03;9.70;;;;;;;3.42;81.15;98889.78;5060789;28;20600;-70
2022/01/09 08:26:16;;;;;;;10.67;9.60;;;;;;;3.31;80.23;98892.28;5061101;28;20196;-70
2022/01/09 08:28:45;;;;;;;10.87;9.77;;;;;;;3.75;79.87;98892.63;5061116;28;21184;-72
2022/01/09 08:31:14;;;;;;;7.03;6.33;;;;;;;9.03;73.56;98871.94;5060822;28;20817;-61
2022/01/09 08:33:39;;;;;;;8.77;7.97;;;;;;;7.56;63.90;98882.19;5060579;28;20478;-68
2022/01/09 08:36:05;;;;;;;9.17;8.37;;;;;;;4.60;73.92;98899.16;5061279;28;20420;-68
2022/01/09 08:38:30;;;;;;;8.87;7.97;;;;;;;3.61;78.00;98901.13;5060813;28;20177;-67
2022/01/09 08:40:56;;;;;;;9.60;8.70;;;;;;;3.50;78.74;98908.75;5060478;28;20664;-68
2022/01/09 08:43:21;;;;;;;10.30;9.13;;;;;;;3.05;80.38;98919.50;5060107;28;20427;-67
2022/01/09 08:45:46;;;;;;;10.83;9.73;;;;;;;3.20;80.95;98920.50;5060608;28;20205;-67
2022/01/09 08:48:12;;;;;;;10.87;9.77;;;;;;;3.10;80.99;98917.81;5060297;28;20161;-66
2022/01/09 08:50:37;;;;;;;10.60;9.60;;;;;;;3.29;81.01;98919.75;5061139;28;20262;-67
2022/01/09 08:53:03;;;;;;;10.53;9.47;;;;;;;3.07;81.50;98915.22;5060302;28;20201;-67
2022/01/09 08:55:28;;;;;;;13.80;10.43;;;;;;;3.51;79.77;98912.22;5060717;28;20177;-67
2022/01/09 08:57:57;;;;;;;9.33;8.43;;;;;;;3.37;80.37;98910.38;5061108;28;20185;-67
2022/01/09 09:00:22;;;;;;;11.60;9.73;;;;;;;3.51;79.98;98910.50;5061153;28;20166;-67
2022/01/09 09:02:48;;;;;;;10.27;9.13;;;;;;;3.75;79.82;98916.72;5060610;28;20420;-67
2022/01/09 09:05:13;;;;;;;10.47;9.43;;;;;;;3.60;81.13;98914.88;5061012;28;20173;-66
2022/01/09 09:07:38;;;;;;;9.90;8.90;;;;;;;3.80;79.46;98916.72;5060351;28;20523;-67
2022/01/09 09:10:04;;;;;;;10.90;9.80;;;;;;;3.42;80.79;98919.84;5064135;28;20561;-69
2022/01/09 09:12:31;;;;;;;10.90;9.70;;;;;;;3.41;80.52;98923.28;5076403;28;20572;-65
2022/01/09 09:14:58;;;;;;;11.77;10.57;;;;;;;3.46;80.52;98929.34;5061536;28;20182;-66
2022/01/09 09:17:24;;;;;;;10.20;9.17;;;;;;;3.55;81.03;98934.56;5063972;28;20415;-66
2022/01/09 09:19:49;;;;;;;10.43;9.40;;;;;;;3.56;80.87;98938.88;5080338;28;20490;-65
2022/01/09 09:22:14;;;;;;;10.23;8.90;;;;;;;3.24;82.13;98947.16;5079926;28;20468;-64
2022/01/09 09:24:40;;;;;;;12.37;9.30;;;;;;;3.48;81.84;98946.53;5079949;28;20181;-66
2022/01/09 09:27:06;;;;;;;11.07;9.70;;;;;;;4.10;79.04;98939.31;5067033;28;20232;-65
2022/01/09 09:29:31;;;;;;;10.23;9.23;;;;;;;3.59;80.92;98944.06;5059753;28;20257;-64
2022/01/09 09:31:56;;;;;;;10.70;9.60;;;;;;;3.65;80.95;98954.44;5059822;28;20178;-65
2022/01/09 09:34:21;;;;;;;11.40;10.20;;;;;;;3.68;80.89;98956.16;5060233;28;20275;-65
2022/01/09 09:36:47;;;;;;;11.57;10.23;;;;;;;4.17;79.43;98942.78;5062324;28;20181;-68
2022/01/09 09:39:13;;;;;;;10.27;9.20;;;;;;;4.33;79.20;98949.75;5063887;28;20205;-67
2022/01/09 09:41:41;;;;;;;10.70;9.70;;;;;;;4.38;78.90;98953.22;5063627;28;20411;-65
2022/01/09 09:44:09;;;;;;;12.00;10.80;;;;;;;4.25;79.92;98946.28;5076223;28;20192;-65
2022/01/09 09:46:34;;;;;;;11.23;9.90;;;;;;;4.20;79.88;98953.13;5080537;28;20534;-65
2022/01/09 09:49:00;;;;;;;10.17;9.27;;;;;;;4.32;78.90;98960.94;5080264;28;20751;-64
2022/01/09 09:51:27;;;;;;;10.37;9.40;;;;;;;4.32;79.47;98963.50;5079418;28;20518;-65
2022/01/09 09:53:53;;;;;;;10.10;9.10;;;;;;;4.45;79.67;98967.03;5079046;28;20220;-65
2022/01/09 09:56:18;;;;;;;10.20;9.20;;;;;;;4.37;79.07;98969.56;5080058;28;20673;-65
2022/01/09 09:58:43;;;;;;;10.27;9.27;;;;;;;4.28;80.23;98966.91;5078992;28;20426;-65
2022/01/09 10:01:28;;;;;;;9.40;8.50;;;;;;;4.25;80.42;98961.75;5078934;28;20275;-64
2022/01/09 10:04:13;;;;;;;10.30;9.30;;;;;;;4.58;79.13;98962.78;5079081;28;20562;-64
2022/01/09 10:06:40;;;;;;;10.67;8.43;;;;;;;4.77;78.64;98957.72;5078601;28;20423;-64
2022/01/09 10:09:10;;;;;;;9.33;8.43;;;;;;;4.63;78.69;98970.56;5079131;28;20419;-64
2022/01/09 10:11:56;;;;;;;8.87;8.07;;;;;;;4.41;79.64;98967.00;5078958;28;20407;-64
2022/01/09 10:14:26;;;;;;;8.40;7.60;;;;;;;4.73;79.28;98969.75;5078815;28;20762;-64
2022/01/09 10:17:24;;;;;;;9.27;8.37;;;;;;;4.72;78.99;98973.16;5077471;28;20423;-63
2022/01/09 10:19:58;;;;;;;9.27;8.37;;;;;;;4.58;79.61;98973.09;5036512;28;20424;-65
2022/01/09 10:22:32;;;;;;;8.80;8.00;;;;;;;4.44;81.07;98973.03;5058673;28;20423;-64
2022/01/09 10:25:15;;;;;;;8.73;7.93;;;;;;;4.94;78.75;98978.44;5058824;28;20404;-64
2022/01/09 10:27:40;;;;;;;9.07;8.17;;;;;;;4.52;79.41;98970.50;5058598;28;20421;-64
2022/01/09 10:30:06;;;;;;;8.70;7.80;;;;;;;4.67;79.85;98978.31;5058309;28;20514;-64
2022/01/09 10:32:32;;;;;;;8.60;7.80;;;;;;;4.89;79.62;98975.84;5058232;28;20186;-65
2022/01/09 10:35:08;;;;;;;8.93;7.60;;;;;;;4.52;80.47;98979.09;5059278;28;20170;-65
2022/01/09 10:37:35;;;;;;;8.40;7.60;;;;;;;4.57;81.46;98984.28;5058655;28;20408;-65
2022/01/09 10:40:01;;;;;;;8.30;7.50;;;;;;;4.65;81.04;98981.75;5057845;28;20511;-65
2022/01/09 10:42:27;;;;;;;8.00;7.27;;;;;;;4.80;80.68;98975.78;5058372;28;20466;-65
2022/01/09 10:44:53;;;;;;;7.70;7.10;;;;;;;5.08;79.13;98975.91;5058413;28;20431;-65
2022/01/09 10:47:18;;;;;;;7.40;6.80;;;;;;;4.90;79.69;98980.16;5058358;28;20457;-66
2022/01/09 10:49:46;;;;;;;8.10;7.30;;;;;;;5.21;79.52;98983.69;5057827;28;20230;-65
2022/01/09 10:52:25;;;;;;;7.10;6.50;;;;;;;5.51;77.93;98981.19;5058413;28;20170;-65
2022/01/09 10:54:51;;;;;;;8.20;7.47;;;;;;;5.25;79.45;98981.13;5058484;28;20514;-65
2022/01/09 10:57:19;;;;;;;7.80;7.10;;;;;;;5.38;79.29;98985.47;5058356;28;20469;-66
2022/01/09 10:59:45;;;;;;;7.90;7.20;;;;;;;5.29;78.74;98981.16;5058542;28;20404;-64
2022/01/09 11:02:12;;;;;;;7.37;6.77;;;;;;;4.94;79.65;98987.06;5058255;28;20690;-65
2022/01/09 11:04:38;;;;;;;7.70;7.00;;;;;;;5.03;80.32;98994.84;5057571;28;20180;-65
2022/01/09 11:07:03;;;;;;;6.90;6.30;;;;;;;5.16;80.02;98997.47;5058610;28;20424;-64
2022/01/09 11:09:30;;;;;;;8.10;7.40;;;;;;;5.40;79.10;99000.13;5057531;28;20300;-65
2022/01/09 11:11:56;;;;;;;9.30;6.60;;;;;;;5.28;79.03;99002.66;5058344;28;20215;-64
2022/01/09 11:14:22;;;;;;;8.27;7.47;;;;;;;5.78;77.90;99002.75;5058460;28;20844;-64
2022/01/09 11:16:52;;;;;;;8.00;7.30;;;;;;;4.63;81.33;99015.31;5058697;28;20173;-64
2022/01/09 11:19:18;;;;;;;7.30;6.70;;;;;;;5.57;79.04;99002.75;5078025;28;20415;-64
2022/01/09 11:21:48;;;;;;;7.60;6.97;;;;;;;5.51;78.87;99001.88;5077892;28;20400;-64
2022/01/09 11:24:26;;;;;;;7.97;7.17;;;;;;;5.26;80.17;99009.53;5077172;28;20846;-67
2022/01/09 11:26:55;;;;;;;8.17;7.43;;;;;;;5.75;77.95;99019.16;5077859;28;20415;-65
2022/01/09 11:29:41;;;;;;;8.90;8.10;;;;;;;5.91;77.70;99027.75;5077241;28;20514;-65
2022/01/09 11:32:16;;;;;;;9.17;8.27;;;;;;;6.17;77.56;99022.66;5078001;28;20415;-68
2022/01/09 11:34:50;;;;;;;9.03;8.13;;;;;;;5.49;78.72;99029.41;5077114;28;20458;-66
2022/01/09 11:37:22;;;;;;;9.23;8.33;;;;;;;5.99;77.45;99020.06;5077868;28;20419;-67